createdAt,value
2018-07-08T00:01:11.079Z,16.80
2018-07-08T00:06:07.409Z,16.70
2018-07-08T00:08:35.717Z,16.70
2018-07-08T00:13:32.055Z,16.60
2018-07-08T00:16:00.340Z,16.60
2018-07-08T00:18:28.686Z,16.60
2018-07-08T00:20:57.029Z,16.50
2018-07-08T00:25:53.677Z,16.40
2018-07-08T00:28:22.005Z,16.40
2018-07-08T00:30:50.286Z,16.30
2018-07-08T00:33:18.573Z,16.30
2018-07-08T00:35:46.851Z,16.30
2018-07-08T00:38:15.151Z,16.20
2018-07-08T00:43:11.461Z,16.20
2018-07-08T00:48:07.805Z,16.20
2018-07-08T00:50:36.100Z,16.10
2018-07-08T00:55:32.371Z,16.20
2018-07-08T00:58:00.687Z,16.10
2018-07-08T01:00:31.687Z,16.10
2018-07-08T01:05:29.158Z,16.10
2018-07-08T01:07:57.505Z,16.10
2018-07-08T01:10:25.912Z,16.10
2018-07-08T01:12:54.201Z,16.00
2018-07-08T01:15:22.705Z,16.00
2018-07-08T01:17:51.029Z,16.00
2018-07-08T01:20:19.323Z,16.00
2018-07-08T01:22:47.631Z,15.90
2018-07-08T01:25:17.051Z,15.80
2018-07-08T01:27:45.375Z,15.80
2018-07-08T01:30:14.641Z,15.80
2018-07-08T01:32:42.919Z,15.70
2018-07-08T01:35:11.269Z,15.70
2018-07-08T01:37:39.597Z,15.70
2018-07-08T01:40:08.002Z,15.70
2018-07-08T01:42:36.313Z,15.60
2018-07-08T01:45:04.663Z,15.60
2018-07-08T01:50:00.965Z,15.50
2018-07-08T01:52:29.259Z,15.50
2018-07-08T01:54:57.520Z,15.40
2018-07-08T01:57:25.833Z,15.40
2018-07-08T01:59:54.170Z,15.40
2018-07-08T02:02:23.131Z,15.40
2018-07-08T02:04:52.453Z,15.30
2018-07-08T02:07:20.691Z,15.30
2018-07-08T02:09:49.402Z,15.30
2018-07-08T02:12:18.308Z,15.20
2018-07-08T02:14:47.097Z,15.20
2018-07-08T02:17:15.452Z,15.10
2018-07-08T02:22:11.735Z,15.00
2018-07-08T02:24:40.148Z,15.00
2018-07-08T02:29:37.718Z,14.90
2018-07-08T02:32:06.156Z,14.90
2018-07-08T02:34:34.664Z,14.80
2018-07-08T02:41:59.520Z,14.90
2018-07-08T02:44:27.812Z,14.90
2018-07-08T02:46:56.399Z,14.90
2018-07-08T02:49:24.716Z,14.80
2018-07-08T02:51:53.012Z,14.80
2018-07-08T02:54:21.309Z,14.80
2018-07-08T02:56:49.685Z,14.80
2018-07-08T02:59:18.024Z,14.70
2018-07-08T03:01:46.302Z,14.70
2018-07-08T03:04:14.606Z,14.60
2018-07-08T03:09:11.132Z,14.60
2018-07-08T03:11:39.388Z,14.50
2018-07-08T03:14:08.128Z,14.50
2018-07-08T03:16:36.409Z,14.40
2018-07-08T03:19:04.709Z,14.40
2018-07-08T03:21:32.968Z,14.40
2018-07-08T03:24:01.256Z,14.30
2018-07-08T03:26:29.526Z,14.30
2018-07-08T03:28:57.780Z,14.30
2018-07-08T03:31:26.190Z,14.30
2018-07-08T03:33:54.476Z,14.30
2018-07-08T03:36:22.764Z,14.30
2018-07-08T03:38:51.055Z,14.20
2018-07-08T03:41:19.317Z,14.20
2018-07-08T03:43:47.607Z,14.20
2018-07-08T03:46:15.962Z,14.20
2018-07-08T03:48:44.202Z,14.20
2018-07-08T03:53:40.484Z,14.20
2018-07-08T03:56:08.820Z,14.20
2018-07-08T03:58:37.148Z,14.20
2018-07-08T04:01:05.436Z,14.20
2018-07-08T04:03:33.718Z,14.20
2018-07-08T04:06:01.994Z,14.20
2018-07-08T04:08:30.288Z,14.10
2018-07-08T04:10:58.572Z,14.20
2018-07-08T04:13:26.868Z,14.20
2018-07-08T04:15:55.211Z,14.20
2018-07-08T04:18:23.464Z,14.30
2018-07-08T04:20:51.760Z,14.30
2018-07-08T04:25:48.058Z,14.40
2018-07-08T04:28:16.480Z,14.40
2018-07-08T04:30:44.731Z,14.40
2018-07-08T04:33:13.024Z,14.50
2018-07-08T04:35:41.292Z,14.50
2018-07-08T04:38:09.558Z,14.60
2018-07-08T04:40:37.813Z,14.50
2018-07-08T04:45:34.132Z,14.70
2018-07-08T04:48:02.415Z,14.70
2018-07-08T04:50:30.686Z,14.80
2018-07-08T04:52:58.998Z,14.80
2018-07-08T04:55:27.242Z,14.80
2018-07-08T04:57:55.552Z,14.80
2018-07-08T05:00:23.820Z,14.90
2018-07-08T05:02:52.082Z,14.90
2018-07-08T05:05:20.343Z,14.90
2018-07-08T05:07:48.622Z,15.00
2018-07-08T05:10:16.909Z,15.00
2018-07-08T05:12:45.197Z,15.10
2018-07-08T05:15:13.467Z,15.10
2018-07-08T05:20:09.715Z,15.20
2018-07-08T05:25:06.033Z,15.30
2018-07-08T05:27:34.307Z,15.30
2018-07-08T05:30:02.590Z,15.40
2018-07-08T05:32:30.849Z,15.40
2018-07-08T05:34:59.154Z,15.40
2018-07-08T05:37:27.413Z,15.50
2018-07-08T05:39:55.700Z,15.60
2018-07-08T05:42:23.984Z,15.70
2018-07-08T05:44:52.237Z,15.70
2018-07-08T05:47:20.531Z,15.80
2018-07-08T05:49:48.793Z,15.90
2018-07-08T05:52:17.060Z,16.00
2018-07-08T05:54:45.310Z,16.00
2018-07-08T05:57:13.689Z,16.10
2018-07-08T05:59:41.983Z,16.20
2018-07-08T06:02:10.245Z,16.30
2018-07-08T06:04:38.518Z,16.40
2018-07-08T06:07:06.861Z,16.50
2018-07-08T06:09:35.129Z,16.60
2018-07-08T06:12:03.461Z,16.70
2018-07-08T06:14:31.714Z,16.80
2018-07-08T06:16:59.977Z,16.90
2018-07-08T06:19:28.267Z,17.00
2018-07-08T06:21:56.578Z,17.10
2018-07-08T06:24:24.897Z,17.20
2018-07-08T06:26:53.208Z,17.30
2018-07-08T06:29:21.535Z,17.40
2018-07-08T06:31:49.907Z,17.60
2018-07-08T06:34:18.145Z,17.70
2018-07-08T06:39:14.561Z,17.90
2018-07-08T06:41:42.785Z,18.00
2018-07-08T06:44:11.057Z,18.10
2018-07-08T06:46:39.340Z,18.20
2018-07-08T06:49:07.754Z,18.40
2018-07-08T06:51:36.049Z,18.50
2018-07-08T06:54:04.343Z,18.80
2018-07-08T06:59:00.689Z,19.10
2018-07-08T07:01:29.024Z,19.30
2018-07-08T07:03:57.307Z,19.30
2018-07-08T07:06:25.603Z,19.40
2018-07-08T07:08:53.871Z,19.50
2018-07-08T07:11:22.169Z,19.60
2018-07-08T07:13:50.488Z,19.60
2018-07-08T07:16:18.765Z,19.80
2018-07-08T07:18:47.022Z,19.80
2018-07-08T07:21:15.344Z,20.00
2018-07-08T07:26:11.685Z,20.50
2018-07-08T07:28:39.995Z,21.00
2018-07-08T07:31:08.273Z,21.40
2018-07-08T07:33:36.604Z,21.70
2018-07-08T07:36:04.956Z,21.80
2018-07-08T07:38:33.265Z,21.80
2018-07-08T07:41:01.572Z,21.70
2018-07-08T07:43:29.865Z,21.60
2018-07-08T07:45:58.145Z,21.50
2018-07-08T07:48:26.424Z,21.40
2018-07-08T07:50:54.735Z,21.40
2018-07-08T07:53:23.071Z,21.40
2018-07-08T07:55:51.337Z,21.40
2018-07-08T07:58:19.646Z,21.50
2018-07-08T08:00:47.944Z,21.60
2018-07-08T08:03:16.242Z,21.70
2018-07-08T08:08:12.564Z,21.80
2018-07-08T08:10:40.913Z,21.90
2018-07-08T08:13:09.172Z,22.00
2018-07-08T08:18:05.576Z,22.00
2018-07-08T08:20:33.960Z,21.90
2018-07-08T08:23:02.329Z,22.00
2018-07-08T08:25:30.652Z,22.00
2018-07-08T08:27:58.940Z,22.10
2018-07-08T08:30:27.268Z,22.10
2018-07-08T08:37:58.279Z,22.20
2018-07-08T08:40:29.752Z,22.20
2018-07-08T08:42:58.015Z,22.10
2018-07-08T08:45:27.776Z,22.10
2018-07-08T08:47:56.054Z,22.20
2018-07-08T08:50:24.355Z,22.20
2018-07-08T08:55:20.692Z,22.30
2018-07-08T08:57:48.973Z,22.40
2018-07-08T09:00:18.312Z,22.40
2018-07-08T09:02:46.642Z,22.50
2018-07-08T09:05:14.948Z,22.60
2018-07-08T09:07:43.430Z,22.70
2018-07-08T09:10:11.784Z,22.80
2018-07-08T09:12:40.067Z,22.90
2018-07-08T09:15:08.368Z,23.00
2018-07-08T09:17:36.684Z,23.00
2018-07-08T09:20:05.120Z,23.00
2018-07-08T09:22:33.421Z,23.00
2018-07-08T09:25:01.703Z,23.10
2018-07-08T09:27:30.083Z,23.10
2018-07-08T09:29:58.373Z,23.20
2018-07-08T09:32:26.678Z,23.30
2018-07-08T09:34:54.960Z,23.30
2018-07-08T09:37:23.226Z,23.40
2018-07-08T09:39:51.511Z,23.40
2018-07-08T09:42:19.791Z,23.50
2018-07-08T09:44:48.071Z,23.60
2018-07-08T09:47:16.332Z,23.60
2018-07-08T09:49:44.636Z,23.70
2018-07-08T09:52:12.948Z,23.80
2018-07-08T09:57:09.368Z,23.90
2018-07-08T09:59:37.739Z,23.90
2018-07-08T10:02:06.129Z,23.80
2018-07-08T10:04:34.490Z,23.70
2018-07-08T10:07:02.791Z,23.50
2018-07-08T10:09:31.077Z,23.50
2018-07-08T10:11:59.349Z,23.40
2018-07-08T10:14:27.627Z,23.40
2018-07-08T10:16:56.211Z,23.40
2018-07-08T10:19:24.566Z,23.50
2018-07-08T10:21:52.909Z,23.70
2018-07-08T10:24:21.307Z,23.80
2018-07-08T10:27:14.977Z,23.90
2018-07-08T10:29:43.250Z,23.90
2018-07-08T10:32:11.532Z,23.60
2018-07-08T10:34:39.791Z,23.50
2018-07-08T10:37:08.790Z,23.50
2018-07-08T10:39:37.082Z,23.60
2018-07-08T10:44:33.397Z,23.70
2018-07-08T10:47:01.676Z,23.70
2018-07-08T10:49:30.028Z,23.90
2018-07-08T10:51:58.373Z,23.80
2018-07-08T10:54:26.692Z,23.80
2018-07-08T10:56:55.006Z,23.80
2018-07-08T10:59:23.357Z,23.90
2018-07-08T11:01:52.624Z,23.90
2018-07-08T11:04:20.838Z,23.90
2018-07-08T11:06:49.151Z,23.90
2018-07-08T11:11:45.491Z,24.00
2018-07-08T11:14:13.773Z,23.90
2018-07-08T11:16:42.115Z,23.90
2018-07-08T11:19:10.379Z,24.00
2018-07-08T11:21:38.659Z,24.10
2018-07-08T11:24:07.000Z,24.10
2018-07-08T11:26:35.316Z,24.10
2018-07-08T11:29:03.622Z,23.90
2018-07-08T11:31:31.899Z,23.90
2018-07-08T11:34:00.235Z,23.90
2018-07-08T11:36:28.509Z,23.90
2018-07-08T11:38:56.816Z,24.10
2018-07-08T11:43:53.137Z,24.30
2018-07-08T11:46:21.402Z,24.40
2018-07-08T11:48:49.668Z,24.40
2018-07-08T11:51:17.960Z,24.50
2018-07-08T11:53:46.239Z,24.60
2018-07-08T11:56:14.534Z,24.60
2018-07-08T11:58:42.867Z,24.60
2018-07-08T12:01:11.139Z,24.60
2018-07-08T12:03:39.460Z,24.70
2018-07-08T12:06:07.758Z,24.70
2018-07-08T12:08:36.045Z,24.80
2018-07-08T12:11:04.366Z,24.90
2018-07-08T12:13:32.676Z,24.90
2018-07-08T12:16:01.115Z,24.90
2018-07-08T12:18:29.409Z,24.90
2018-07-08T12:20:57.724Z,25.00
2018-07-08T12:23:26.048Z,25.00
2018-07-08T12:25:54.316Z,25.00
2018-07-08T12:28:22.662Z,25.00
2018-07-08T12:30:50.964Z,25.10
2018-07-08T12:33:19.265Z,25.20
2018-07-08T12:35:47.554Z,25.20
2018-07-08T12:38:15.845Z,25.20
2018-07-08T12:40:44.153Z,25.10
2018-07-08T12:43:12.431Z,25.10
2018-07-08T12:45:40.696Z,25.10
2018-07-08T12:48:08.955Z,25.10
2018-07-08T12:50:37.249Z,25.10
2018-07-08T12:53:05.773Z,25.00
2018-07-08T12:55:34.124Z,25.00
2018-07-08T12:58:02.392Z,24.90
2018-07-08T13:00:30.648Z,24.80
2018-07-08T13:02:59.005Z,24.70
2018-07-08T13:05:27.307Z,24.60
2018-07-08T13:10:23.587Z,24.60
2018-07-08T13:12:51.882Z,24.50
2018-07-08T13:15:20.164Z,24.50
2018-07-08T13:17:48.495Z,24.50
2018-07-08T13:20:16.772Z,24.50
2018-07-08T13:22:45.060Z,24.50
2018-07-08T13:25:13.328Z,24.50
2018-07-08T13:27:41.627Z,24.50
2018-07-08T13:30:10.088Z,24.50
2018-07-08T13:32:38.401Z,24.50
2018-07-08T13:35:06.641Z,24.50
2018-07-08T13:37:34.961Z,24.50
2018-07-08T13:40:03.275Z,24.50
2018-07-08T13:42:31.596Z,24.60
2018-07-08T13:44:59.881Z,24.60
2018-07-08T13:47:28.196Z,24.70
2018-07-08T13:49:56.481Z,24.70
2018-07-08T13:52:24.728Z,24.80
2018-07-08T13:57:21.017Z,24.70
2018-07-08T13:59:49.287Z,24.80
2018-07-08T14:02:17.570Z,24.80
2018-07-08T14:04:45.886Z,24.80
2018-07-08T14:07:14.243Z,24.70
2018-07-08T14:09:42.547Z,24.70
2018-07-08T14:12:10.825Z,24.70
2018-07-08T14:14:39.096Z,24.70
2018-07-08T14:17:07.368Z,24.70
2018-07-08T14:19:35.669Z,24.70
2018-07-08T14:22:03.960Z,24.80
2018-07-08T14:27:00.243Z,24.90
2018-07-08T14:29:28.526Z,24.90
2018-07-08T14:31:56.816Z,25.00
2018-07-08T14:34:25.082Z,25.00
2018-07-08T14:36:53.342Z,25.10
2018-07-08T14:39:21.618Z,25.00
2018-07-08T14:41:49.860Z,25.00
2018-07-08T14:44:18.150Z,25.00
2018-07-08T14:46:46.402Z,25.00
2018-07-08T14:49:14.680Z,24.90
2018-07-08T14:51:42.964Z,25.00
2018-07-08T14:54:11.239Z,24.90
2018-07-08T14:56:39.525Z,24.90
2018-07-08T14:59:07.872Z,24.90
2018-07-08T15:01:36.148Z,24.90
2018-07-08T15:04:04.477Z,25.00
2018-07-08T15:06:32.810Z,25.00
2018-07-08T15:09:04.518Z,25.00
2018-07-08T15:11:32.824Z,25.00
2018-07-08T15:14:01.108Z,25.00
2018-07-08T15:16:29.441Z,25.10
2018-07-08T15:18:57.724Z,25.00
2018-07-08T15:23:54.058Z,25.00
2018-07-08T15:26:22.392Z,25.00
2018-07-08T15:28:51.118Z,25.00
2018-07-08T15:31:19.668Z,25.00
2018-07-08T15:33:48.253Z,25.00
2018-07-08T15:36:16.582Z,25.10
2018-07-08T15:43:40.789Z,25.00
2018-07-08T15:46:09.092Z,25.10
2018-07-08T15:48:37.367Z,25.10
2018-07-08T15:51:05.671Z,25.00
2018-07-08T15:56:01.937Z,25.10
2018-07-08T15:58:30.317Z,25.10
2018-07-08T16:00:58.633Z,25.10
2018-07-08T16:03:26.966Z,25.10
2018-07-08T16:05:55.252Z,25.00
2018-07-08T16:08:23.512Z,25.00
2018-07-08T16:10:51.817Z,25.10
2018-07-08T16:13:20.113Z,25.10
2018-07-08T16:15:48.389Z,25.10
2018-07-08T16:18:16.716Z,25.10
2018-07-08T16:20:44.973Z,25.10
2018-07-08T16:23:13.281Z,25.20
2018-07-08T16:25:41.607Z,25.20
2018-07-08T16:28:09.979Z,25.20
2018-07-08T16:30:38.289Z,25.20
2018-07-08T16:33:06.505Z,25.20
2018-07-08T16:35:34.813Z,25.20
2018-07-08T16:38:03.127Z,25.20
2018-07-08T16:40:31.423Z,25.30
2018-07-08T16:42:59.691Z,25.20
2018-07-08T16:45:27.978Z,25.20
2018-07-08T16:47:56.363Z,25.40
2018-07-08T16:50:24.699Z,25.40
2018-07-08T16:52:52.953Z,25.40
2018-07-08T16:55:21.263Z,25.40
2018-07-08T16:57:49.589Z,25.50
2018-07-08T17:00:17.859Z,25.50
2018-07-08T17:02:46.125Z,25.50
2018-07-08T17:05:14.403Z,25.70
2018-07-08T17:07:42.835Z,26.10
2018-07-08T17:10:11.118Z,26.70
2018-07-08T17:12:39.485Z,27.20
2018-07-08T17:15:07.795Z,27.70
2018-07-08T17:17:36.130Z,28.20
2018-07-08T17:20:04.435Z,28.60
2018-07-08T17:22:32.777Z,28.80
2018-07-08T17:25:01.071Z,28.90
2018-07-08T17:27:29.403Z,29.10
2018-07-08T17:29:57.691Z,29.10
2018-07-08T17:32:25.977Z,29.10
2018-07-08T17:34:54.357Z,29.10
2018-07-08T17:37:22.685Z,29.20
2018-07-08T17:39:51.003Z,29.30
2018-07-08T17:42:19.299Z,29.30
2018-07-08T17:44:47.619Z,29.10
2018-07-08T17:47:15.943Z,29.10
2018-07-08T17:49:44.351Z,29.00
2018-07-08T17:52:12.647Z,29.10
2018-07-08T17:54:40.946Z,29.10
2018-07-08T17:57:09.377Z,29.10
2018-07-08T17:59:37.666Z,29.10
2018-07-08T18:02:06.382Z,29.10
2018-07-08T18:04:34.673Z,29.10
2018-07-08T18:07:02.967Z,28.90
2018-07-08T18:11:59.372Z,28.10
2018-07-08T18:14:27.712Z,27.70
2018-07-08T18:16:57.517Z,27.30
2018-07-08T18:24:22.707Z,26.20
2018-07-08T18:26:51.375Z,25.90
2018-07-08T18:31:47.681Z,25.40
2018-07-08T18:34:16.026Z,25.20
2018-07-08T18:39:12.708Z,24.80
2018-07-08T18:41:41.553Z,24.60
2018-07-08T18:44:10.041Z,24.40
2018-07-08T18:46:38.387Z,24.20
2018-07-08T18:49:06.929Z,24.10
2018-07-08T18:51:35.252Z,23.90
2018-07-08T18:54:03.613Z,23.80
2018-07-08T18:56:31.977Z,23.60
2018-07-08T18:59:00.313Z,23.50
2018-07-08T19:01:28.645Z,23.30
2018-07-08T19:03:57.058Z,23.20
2018-07-08T19:06:25.386Z,23.00
2018-07-08T19:08:53.704Z,22.90
2018-07-08T19:13:50.081Z,22.60
2018-07-08T19:16:18.396Z,22.50
2018-07-08T19:18:46.719Z,22.30
2018-07-08T19:21:15.057Z,22.20
2018-07-08T19:23:43.581Z,22.10
2018-07-08T19:26:11.889Z,22.00
2018-07-08T19:31:08.292Z,21.80
2018-07-08T19:33:36.658Z,21.60
2018-07-08T19:36:05.290Z,21.50
2018-07-08T19:38:33.628Z,21.40
2018-07-08T19:41:02.013Z,21.40
2018-07-08T19:43:30.313Z,21.30
2018-07-08T19:45:58.662Z,21.20
2018-07-08T19:50:54.972Z,20.90
2018-07-08T19:58:19.468Z,20.70
2018-07-08T20:00:47.789Z,20.60
2018-07-08T20:03:16.193Z,20.60
2018-07-08T20:05:44.517Z,20.50
2018-07-08T20:08:12.866Z,20.40
2018-07-08T20:10:41.220Z,20.30
2018-07-08T20:13:09.551Z,20.30
2018-07-08T20:15:37.866Z,20.20
2018-07-08T20:18:06.205Z,20.10
2018-07-08T20:20:34.558Z,20.00
2018-07-08T20:23:02.923Z,19.90
2018-07-08T20:25:31.308Z,19.80
2018-07-08T20:27:59.627Z,19.70
2018-07-08T20:32:56.096Z,19.50
2018-07-08T20:35:24.563Z,19.40
2018-07-08T20:37:52.810Z,19.40
2018-07-08T20:40:21.135Z,19.30
2018-07-08T20:42:49.499Z,19.20
2018-07-08T20:45:17.985Z,19.20
2018-07-08T20:47:46.296Z,19.20
2018-07-08T20:50:14.622Z,19.10
2018-07-08T20:52:42.958Z,19.10
2018-07-08T20:55:11.265Z,19.00
2018-07-08T20:57:39.582Z,19.00
2018-07-08T21:00:07.874Z,18.90
2018-07-08T21:02:36.224Z,19.00
2018-07-08T21:05:04.581Z,18.90
2018-07-08T21:07:32.954Z,18.90
2018-07-08T21:10:01.317Z,18.90
2018-07-08T21:12:30.498Z,18.90
2018-07-08T21:14:58.853Z,18.90
2018-07-08T21:17:27.238Z,18.80
2018-07-08T21:19:55.531Z,18.70
2018-07-08T21:22:23.814Z,18.70
2018-07-08T21:24:52.200Z,18.60
2018-07-08T21:27:20.493Z,18.40
2018-07-08T21:29:48.860Z,18.30
2018-07-08T21:34:45.523Z,18.10
2018-07-08T21:37:13.893Z,18.00
2018-07-08T21:39:42.186Z,18.00
2018-07-08T21:42:10.473Z,17.90
2018-07-08T21:44:39.168Z,17.80
2018-07-08T21:49:35.498Z,17.60
2018-07-08T21:52:03.884Z,17.60
2018-07-08T21:54:32.188Z,17.50
2018-07-08T21:57:00.547Z,17.40
2018-07-08T21:59:28.887Z,17.30
2018-07-08T22:02:00.957Z,17.30
2018-07-08T22:04:29.277Z,17.20
2018-07-08T22:07:02.762Z,17.10
2018-07-08T22:09:31.060Z,17.10
2018-07-08T22:11:59.425Z,17.00
2018-07-08T22:14:27.721Z,17.00
2018-07-08T22:16:56.154Z,16.90
2018-07-08T22:21:52.488Z,16.80
2018-07-08T22:24:20.805Z,16.70
2018-07-08T22:26:49.097Z,16.70
2018-07-08T22:29:17.438Z,16.60
2018-07-08T22:31:45.799Z,16.60
2018-07-08T22:34:14.099Z,16.50
2018-07-08T22:36:42.377Z,16.50
2018-07-08T22:39:11.193Z,16.50
2018-07-08T22:41:39.480Z,16.40
2018-07-08T22:44:08.258Z,16.30
2018-07-08T22:46:36.745Z,16.30
2018-07-08T22:49:05.148Z,16.30
2018-07-08T22:51:33.514Z,16.20
2018-07-08T22:54:01.811Z,16.20
2018-07-08T22:56:30.168Z,16.20
2018-07-08T22:58:58.413Z,16.20
2018-07-08T23:01:37.900Z,16.10
2018-07-08T23:04:06.686Z,16.10
2018-07-08T23:06:35.027Z,16.00
2018-07-08T23:09:04.549Z,16.00
2018-07-08T23:11:32.832Z,16.00
2018-07-08T23:14:01.161Z,16.00
2018-07-08T23:16:29.745Z,15.90
2018-07-08T23:18:58.028Z,15.90
2018-07-08T23:21:26.397Z,15.90
2018-07-08T23:23:54.693Z,15.90
2018-07-08T23:26:23.045Z,15.80
2018-07-08T23:28:51.382Z,15.80
2018-07-08T23:31:19.728Z,15.80
2018-07-08T23:33:48.003Z,15.70
2018-07-08T23:36:16.302Z,15.70
2018-07-08T23:38:44.588Z,15.70
2018-07-08T23:41:12.884Z,15.70
2018-07-08T23:43:41.160Z,15.70
2018-07-08T23:46:09.436Z,15.70
2018-07-08T23:48:37.741Z,15.70
2018-07-08T23:51:06.123Z,15.70
2018-07-08T23:53:34.408Z,15.70
2018-07-08T23:56:02.667Z,15.70
2018-07-08T23:58:30.942Z,15.60
